Mildred, Missouri
Current Conditions -  °F | °C
As of 5:15 AM on Saturday 27 Dec 2014 (Local Time) from KBBG Reporting Station
Haze Haze  
Wind Chill: 41°   Ceiling: 300
Heat Index: 46°   Visibility: 4mi
Dew Point: 45°   Wind: 10mph
Humidity: 93%   Direction: 300°WNW
Pressure: 30.09"   Gusts: NA
Location:  36.5876°N, 93.1264°W
Report Text: KBBG 271115Z AUTO 30009KT 4SM BR OVC003 08/07 A3009 RMK AO2
Loading
Personal Weather Stations






























Interactive Weather Map New forecast layout! Learn more

10-Day Weather Forecast

Advertisements
Track Severe Weather on mobile